createdAt,value
2022-10-05T00:02:23.703Z,98899.56
2022-10-05T00:04:56.459Z,98889.84
2022-10-05T00:07:24.645Z,98889.91
2022-10-05T00:09:57.163Z,98889.94
2022-10-05T00:12:26.343Z,98879.38
2022-10-05T00:15:00.269Z,98880.94
2022-10-05T00:17:30.186Z,98880.06
2022-10-05T00:19:57.012Z,98872.97
2022-10-05T00:22:29.809Z,98876.53
2022-10-05T00:24:58.908Z,98882.56
2022-10-05T00:27:31.179Z,98888.16
2022-10-05T00:30:10.864Z,98895.34
2022-10-05T00:32:37.510Z,98897.09
2022-10-05T00:35:04.552Z,98892.66
2022-10-05T00:37:31.226Z,98890.16
2022-10-05T00:39:57.915Z,98887.56
2022-10-05T00:42:35.182Z,98883.94
2022-10-05T00:45:14.804Z,98872.44
2022-10-05T00:48:09.174Z,98885.78
2022-10-05T00:50:49.097Z,98880.59
2022-10-05T00:53:39.930Z,98878.84
2022-10-05T00:56:06.558Z,98885.09
2022-10-05T00:58:42.047Z,98885.28
2022-10-05T01:01:16.637Z,98884.41
2022-10-05T01:03:58.581Z,98885.69
2022-10-05T01:07:13.361Z,98895.50
2022-10-05T01:09:49.170Z,98894.66
2022-10-05T01:12:22.729Z,98893.06
2022-10-05T01:14:57.317Z,98886.06
2022-10-05T01:17:32.814Z,98889.53
2022-10-05T01:20:21.330Z,98892.09
2022-10-05T01:23:09.572Z,98883.25
2022-10-05T01:25:53.479Z,98888.41
2022-10-05T01:28:27.954Z,98883.84
2022-10-05T01:31:21.429Z,98886.41
2022-10-05T01:34:21.222Z,98883.09
2022-10-05T01:36:53.863Z,98887.75
2022-10-05T01:39:26.515Z,98887.84
2022-10-05T01:42:31.474Z,98886.25
2022-10-05T01:45:06.252Z,98873.06
2022-10-05T01:47:40.869Z,98869.53
2022-10-05T01:50:38.638Z,98867.69
2022-10-05T01:53:34.682Z,98861.28
2022-10-05T01:56:18.415Z,98857.66
2022-10-05T01:58:48.191Z,98851.47
2022-10-05T02:01:25.303Z,98849.59
2022-10-05T02:05:00.443Z,98843.16
2022-10-05T02:07:28.813Z,98847.50
2022-10-05T02:10:05.939Z,98845.81
2022-10-05T02:12:37.109Z,98840.41
2022-10-05T02:15:14.939Z,98833.41
2022-10-05T02:17:48.319Z,98831.75
2022-10-05T02:20:23.697Z,98826.44
2022-10-05T02:22:54.729Z,98824.59
2022-10-05T02:25:27.352Z,98829.13
2022-10-05T02:28:01.116Z,98822.03
2022-10-05T02:30:31.546Z,98819.56
2022-10-05T02:33:08.371Z,98817.91
2022-10-05T02:35:35.089Z,98807.38
2022-10-05T02:38:10.750Z,98817.97
2022-10-05T02:40:52.667Z,98818.09
2022-10-05T02:43:46.284Z,98819.19
2022-10-05T02:46:19.058Z,98807.84
2022-10-05T02:49:14.490Z,98812.50
2022-10-05T02:51:47.287Z,98810.84
2022-10-05T02:54:32.632Z,98808.34
2022-10-05T02:57:06.445Z,98810.94
2022-10-05T02:59:43.308Z,98805.59
2022-10-05T03:02:13.821Z,98809.88
2022-10-05T03:04:46.773Z,98806.22
2022-10-05T03:07:33.444Z,98799.97
2022-10-05T03:10:36.470Z,98800.69
2022-10-05T03:13:16.757Z,98806.88
2022-10-05T03:16:01.972Z,98816.53
2022-10-05T03:18:40.433Z,98815.66
2022-10-05T03:21:35.931Z,98816.56
2022-10-05T03:24:18.211Z,98819.06
2022-10-05T03:27:01.059Z,98815.34
2022-10-05T03:29:56.702Z,98814.44
2022-10-05T03:32:32.305Z,98820.00
2022-10-05T03:35:18.012Z,98814.59
2022-10-05T03:37:59.167Z,98817.09
2022-10-05T03:40:47.273Z,98823.22
2022-10-05T03:43:26.939Z,98822.25
2022-10-05T03:46:08.612Z,98817.69
2022-10-05T03:48:55.126Z,98819.34
2022-10-05T03:51:29.630Z,98809.75
2022-10-05T03:54:05.594Z,98810.63
2022-10-05T03:56:41.770Z,98818.28
2022-10-05T03:59:31.551Z,98816.41
2022-10-05T04:02:07.878Z,98822.28
2022-10-05T04:04:44.142Z,98810.69
2022-10-05T04:07:23.813Z,98816.88
2022-10-05T04:09:53.001Z,98817.56
2022-10-05T04:12:30.682Z,98821.03
2022-10-05T04:15:02.921Z,98823.72
2022-10-05T04:17:42.333Z,98825.63
2022-10-05T04:20:38.060Z,98824.72
2022-10-05T04:23:19.245Z,98824.94
2022-10-05T04:25:53.934Z,98824.75
2022-10-05T04:28:37.546Z,98818.47
2022-10-05T04:31:07.038Z,98819.22
2022-10-05T04:33:34.541Z,98813.22
2022-10-05T04:36:12.796Z,98810.56
2022-10-05T04:38:47.541Z,98808.75
2022-10-05T04:41:49.698Z,98807.09
2022-10-05T04:44:31.357Z,98805.28
2022-10-05T04:47:04.214Z,98809.09
2022-10-05T04:49:43.124Z,98809.00
2022-10-05T04:52:28.175Z,98809.03
2022-10-05T04:55:08.606Z,98806.31
2022-10-05T04:57:49.505Z,98810.56
2022-10-05T05:00:28.613Z,98808.59
2022-10-05T05:03:21.734Z,98805.00
2022-10-05T05:06:18.377Z,98803.28
2022-10-05T05:09:10.940Z,98802.97
2022-10-05T05:11:52.982Z,98808.19
2022-10-05T05:14:28.995Z,98809.50
2022-10-05T05:17:13.316Z,98814.03
2022-10-05T05:20:01.857Z,98819.75
2022-10-05T05:22:53.841Z,98827.63
2022-10-05T05:25:35.597Z,98829.66
2022-10-05T05:28:30.546Z,98826.03
2022-10-05T05:31:30.611Z,98834.78
2022-10-05T05:34:01.390Z,98837.97
2022-10-05T05:36:54.592Z,98842.28
2022-10-05T05:39:36.862Z,98837.84
2022-10-05T05:42:47.207Z,98845.84
2022-10-05T05:45:29.792Z,98839.41
2022-10-05T05:47:59.480Z,98828.69
2022-10-05T05:50:48.693Z,98829.47
2022-10-05T05:53:29.513Z,98843.78
2022-10-05T05:56:05.272Z,98844.56
2022-10-05T05:58:39.942Z,98837.31
2022-10-05T06:01:44.156Z,98832.09
2022-10-05T06:04:28.238Z,98844.41
2022-10-05T06:06:58.066Z,98838.19
2022-10-05T06:09:44.512Z,98850.38
2022-10-05T06:12:41.347Z,98858.16
2022-10-05T06:15:41.863Z,98866.91
2022-10-05T06:18:16.105Z,98860.63
2022-10-05T06:20:53.202Z,98866.72
2022-10-05T06:23:27.417Z,98865.22
2022-10-05T06:26:11.090Z,98868.66
2022-10-05T06:28:41.491Z,98876.31
2022-10-05T06:31:46.159Z,98882.88
2022-10-05T06:34:31.285Z,98882.97
2022-10-05T06:37:18.702Z,98890.31
2022-10-05T06:39:51.911Z,98886.97
2022-10-05T06:42:38.859Z,98885.94
2022-10-05T06:45:48.235Z,98889.94
2022-10-05T06:48:54.157Z,98884.53
2022-10-05T06:51:37.900Z,98887.50
2022-10-05T06:54:45.702Z,98887.72
2022-10-05T06:57:32.817Z,98882.28
2022-10-05T07:00:21.918Z,98881.97
2022-10-05T07:03:24.960Z,98882.69
2022-10-05T07:06:25.797Z,98885.88
2022-10-05T07:09:27.164Z,98874.88
2022-10-05T07:12:05.407Z,98879.22
2022-10-05T07:14:50.262Z,98876.22
2022-10-05T07:17:28.828Z,98878.38
2022-10-05T07:20:01.982Z,98881.56
2022-10-05T07:22:38.087Z,98879.72
2022-10-05T07:25:23.494Z,98871.63
2022-10-05T07:28:05.427Z,98879.47
2022-10-05T07:30:41.566Z,98870.97
2022-10-05T07:33:17.842Z,98878.75
2022-10-05T07:36:20.143Z,98870.66
2022-10-05T07:39:06.041Z,98863.69
2022-10-05T07:41:47.545Z,98865.88
2022-10-05T07:44:22.555Z,98871.00
2022-10-05T07:46:58.654Z,98872.84
2022-10-05T07:49:40.440Z,98869.53
2022-10-05T07:52:34.926Z,98875.41
2022-10-05T07:55:17.750Z,98865.88
2022-10-05T07:57:48.524Z,98867.63
2022-10-05T08:00:22.370Z,98862.16
2022-10-05T08:03:14.095Z,98868.00
2022-10-05T08:05:42.562Z,98865.88
2022-10-05T08:08:23.949Z,98878.56
2022-10-05T08:11:11.190Z,98872.44
2022-10-05T08:13:45.659Z,98878.22
2022-10-05T08:16:13.287Z,98881.22
2022-10-05T08:18:58.136Z,98876.59
2022-10-05T08:21:35.456Z,98872.16
2022-10-05T08:24:30.681Z,98873.19
2022-10-05T08:27:12.146Z,98872.31
2022-10-05T08:29:54.021Z,98868.63
2022-10-05T08:32:27.903Z,98867.66
2022-10-05T08:35:17.771Z,98866.63
2022-10-05T08:37:46.156Z,98863.69
2022-10-05T08:40:34.076Z,98864.63
2022-10-05T08:43:36.234Z,98871.31
2022-10-05T08:46:11.793Z,98870.13
2022-10-05T08:48:56.205Z,98867.75
2022-10-05T08:51:41.558Z,98871.56
2022-10-05T08:54:40.439Z,98870.13
2022-10-05T08:57:22.105Z,98866.59
2022-10-05T09:00:00.546Z,98873.53
2022-10-05T09:02:50.330Z,98870.31
2022-10-05T09:05:58.342Z,98871.25
2022-10-05T09:08:46.118Z,98866.72
2022-10-05T09:11:17.038Z,98870.88
2022-10-05T09:14:05.145Z,98880.88
2022-10-05T09:16:42.691Z,98869.28
2022-10-05T09:19:46.926Z,98875.56
2022-10-05T09:22:47.430Z,98865.25
2022-10-05T09:25:18.437Z,98871.72
2022-10-05T09:28:25.246Z,98871.00
2022-10-05T09:31:29.881Z,98858.81
2022-10-05T09:34:05.349Z,98870.00
2022-10-05T09:37:13.958Z,98857.22
2022-10-05T09:40:05.500Z,98868.34
2022-10-05T09:43:00.027Z,98864.91
2022-10-05T09:45:45.317Z,98850.59
2022-10-05T09:48:36.653Z,98854.34
2022-10-05T09:51:15.340Z,98856.16
2022-10-05T09:54:03.787Z,98856.00
2022-10-05T09:56:45.795Z,98852.06
2022-10-05T09:59:38.091Z,98855.25
2022-10-05T10:02:18.431Z,98852.66
2022-10-05T10:05:10.099Z,98849.28
2022-10-05T10:08:07.272Z,98844.00
2022-10-05T10:10:49.672Z,98848.53
2022-10-05T10:13:28.414Z,98851.25
2022-10-05T10:16:16.424Z,98846.13
2022-10-05T10:18:45.966Z,98848.63
2022-10-05T10:21:37.569Z,98841.94
2022-10-05T10:24:30.433Z,98845.31
2022-10-05T10:27:36.126Z,98839.44
2022-10-05T10:30:25.139Z,98845.03
2022-10-05T10:33:19.201Z,98834.13
2022-10-05T10:36:00.489Z,98831.56
2022-10-05T10:38:58.468Z,98810.44
2022-10-05T10:41:30.435Z,98805.19
2022-10-05T10:44:29.352Z,98802.78
2022-10-05T10:47:14.749Z,98778.38
2022-10-05T10:49:44.091Z,98783.41
2022-10-05T10:52:45.161Z,98785.22
2022-10-05T10:55:30.905Z,98775.88
2022-10-05T10:58:39.801Z,98765.81
2022-10-05T11:01:21.844Z,98750.31
2022-10-05T11:04:27.237Z,98747.88
2022-10-05T11:07:30.335Z,98735.84
2022-10-05T11:10:21.916Z,98729.59
2022-10-05T11:13:11.704Z,98727.72
2022-10-05T11:16:00.778Z,98723.59
2022-10-05T11:18:48.933Z,98725.13
2022-10-05T11:21:31.715Z,98709.34
2022-10-05T11:24:34.573Z,98719.34
2022-10-05T11:27:25.784Z,98709.56
2022-10-05T11:30:11.585Z,98714.63
2022-10-05T11:32:56.783Z,98714.50
2022-10-05T11:35:51.445Z,98705.47
2022-10-05T11:38:58.926Z,98698.19
2022-10-05T11:42:06.743Z,98705.47
2022-10-05T11:45:01.447Z,98697.38
2022-10-05T11:47:32.414Z,98694.41
2022-10-05T11:50:24.497Z,98693.66
2022-10-05T11:53:12.865Z,98694.44
2022-10-05T11:55:45.515Z,98689.97
2022-10-05T11:58:54.184Z,98687.97
2022-10-05T12:01:36.325Z,98682.13
2022-10-05T12:04:18.290Z,98692.25
2022-10-05T12:06:53.544Z,98686.34
2022-10-05T12:10:05.427Z,98677.72
2022-10-05T12:13:08.572Z,98685.69
2022-10-05T12:15:51.662Z,98684.75
2022-10-05T12:18:30.242Z,98680.19
2022-10-05T12:21:02.651Z,98687.19
2022-10-05T12:23:40.106Z,98699.06
2022-10-05T12:26:11.799Z,98684.03
2022-10-05T12:28:46.858Z,98686.44
2022-10-05T12:31:16.421Z,98677.94
2022-10-05T12:34:01.736Z,98675.88
2022-10-05T12:37:02.996Z,98671.63
2022-10-05T12:39:54.570Z,98675.53
2022-10-05T12:42:59.582Z,98668.16
2022-10-05T12:45:47.570Z,98669.38
2022-10-05T12:48:40.004Z,98668.41
2022-10-05T12:51:19.765Z,98672.78
2022-10-05T12:54:03.171Z,98665.88
2022-10-05T12:56:44.551Z,98664.59
2022-10-05T12:59:21.912Z,98666.72
2022-10-05T13:02:01.437Z,98670.81
2022-10-05T13:04:55.654Z,98663.28
2022-10-05T13:07:54.561Z,98658.75
2022-10-05T13:10:36.279Z,98663.16
2022-10-05T13:13:15.255Z,98666.53
2022-10-05T13:15:54.623Z,98662.97
2022-10-05T13:18:40.162Z,98653.97
2022-10-05T13:21:24.674Z,98661.56
2022-10-05T13:24:20.088Z,98663.72
2022-10-05T13:26:53.543Z,98661.41
2022-10-05T13:29:45.510Z,98662.03
2022-10-05T13:32:21.269Z,98659.00
2022-10-05T13:35:04.224Z,98653.25
2022-10-05T13:38:08.069Z,98657.25
2022-10-05T13:41:07.191Z,98652.81
2022-10-05T13:43:44.783Z,98651.66
2022-10-05T13:46:40.555Z,98657.09
2022-10-05T13:49:21.778Z,98657.38
2022-10-05T13:52:19.527Z,98643.31
2022-10-05T13:55:01.616Z,98649.97
2022-10-05T13:57:46.564Z,98648.25
2022-10-05T14:00:15.950Z,98646.53
2022-10-05T14:02:47.079Z,98640.84
2022-10-05T14:05:20.176Z,98644.97
2022-10-05T14:07:55.221Z,98641.19
2022-10-05T14:10:36.516Z,98644.00
2022-10-05T14:13:20.789Z,98645.47
2022-10-05T14:16:12.296Z,98642.91
2022-10-05T14:19:07.811Z,98647.94
2022-10-05T14:21:58.842Z,98645.47
2022-10-05T14:24:49.452Z,98643.38
2022-10-05T14:27:29.716Z,98646.06
2022-10-05T14:30:00.449Z,98631.72
2022-10-05T14:32:31.999Z,98630.97
2022-10-05T14:35:10.621Z,98633.22
2022-10-05T14:37:51.254Z,98628.00
2022-10-05T14:40:25.387Z,98624.13
2022-10-05T14:42:52.449Z,98614.53
2022-10-05T14:45:29.858Z,98629.31
2022-10-05T14:48:09.348Z,98625.25
2022-10-05T14:50:52.316Z,98622.13
2022-10-05T14:53:22.334Z,98633.75
2022-10-05T14:55:57.667Z,98626.91
2022-10-05T14:59:08.437Z,98622.75
2022-10-05T15:01:40.221Z,98627.06
2022-10-05T15:04:33.840Z,98631.38
2022-10-05T15:07:20.084Z,98625.84
2022-10-05T15:10:02.358Z,98632.06
2022-10-05T15:12:38.463Z,98635.50
2022-10-05T15:15:25.670Z,98631.19
2022-10-05T15:18:19.666Z,98641.25
2022-10-05T15:21:23.849Z,98636.22
2022-10-05T15:23:59.272Z,98643.00
2022-10-05T15:26:45.887Z,98633.13
2022-10-05T15:29:36.113Z,98646.47
2022-10-05T15:32:03.242Z,98647.91
2022-10-05T15:34:52.178Z,98645.94
2022-10-05T15:37:55.084Z,98650.38
2022-10-05T15:40:30.534Z,98642.03
2022-10-05T15:43:03.881Z,98639.09
2022-10-05T15:45:33.895Z,98651.22
2022-10-05T15:48:23.951Z,98642.91
2022-10-05T15:51:16.943Z,98642.03
2022-10-05T15:53:43.754Z,98640.03
2022-10-05T15:56:23.331Z,98642.63
2022-10-05T15:58:50.239Z,98646.44
2022-10-05T16:01:19.981Z,98658.75
2022-10-05T16:03:58.251Z,98648.41
2022-10-05T16:07:08.486Z,98654.03
2022-10-05T16:10:05.189Z,98661.53
2022-10-05T16:12:50.554Z,98661.66
2022-10-05T16:15:34.586Z,98667.06
2022-10-05T16:18:01.559Z,98669.19
2022-10-05T16:20:47.414Z,98667.69
2022-10-05T16:23:41.734Z,98667.38
2022-10-05T16:26:38.484Z,98667.94
2022-10-05T16:29:29.971Z,98671.69
2022-10-05T16:32:21.310Z,98672.19
2022-10-05T16:35:08.618Z,98677.88
2022-10-05T16:37:46.068Z,98688.00
2022-10-05T16:40:41.597Z,98684.13
2022-10-05T16:43:16.876Z,98684.94
2022-10-05T16:45:51.745Z,98681.13
2022-10-05T16:48:31.800Z,98682.88
2022-10-05T16:51:16.803Z,98687.50
2022-10-05T16:53:45.402Z,98689.03
2022-10-05T16:56:17.212Z,98690.72
2022-10-05T16:58:52.960Z,98686.66
2022-10-05T17:01:43.629Z,98707.03
2022-10-05T17:04:24.510Z,98701.59
2022-10-05T17:07:03.170Z,98706.09
2022-10-05T17:09:48.686Z,98706.97
2022-10-05T17:12:45.500Z,98706.97
2022-10-05T17:15:41.167Z,98709.38
2022-10-05T17:18:20.265Z,98714.94
2022-10-05T17:20:49.959Z,98719.63
2022-10-05T17:23:26.691Z,98722.13
2022-10-05T17:25:56.074Z,98725.38
2022-10-05T17:28:44.710Z,98733.03
2022-10-05T17:31:22.438Z,98734.03
2022-10-05T17:34:11.142Z,98736.31
2022-10-05T17:36:42.794Z,98750.50
2022-10-05T17:39:20.118Z,98755.88
2022-10-05T17:41:47.589Z,98754.78
2022-10-05T17:44:19.075Z,98761.03
2022-10-05T17:46:51.865Z,98754.19
2022-10-05T17:49:43.069Z,98767.72
2022-10-05T17:52:43.748Z,98765.25
2022-10-05T17:55:26.653Z,98770.56
2022-10-05T17:57:58.489Z,98774.94
2022-10-05T18:00:31.359Z,98773.28
2022-10-05T18:02:58.327Z,98777.63
2022-10-05T18:05:28.017Z,98780.38
2022-10-05T18:08:13.053Z,98786.91
2022-10-05T18:11:10.951Z,98785.91
2022-10-05T18:13:44.641Z,98789.03
2022-10-05T18:16:11.797Z,98793.28
2022-10-05T18:18:44.646Z,98799.03
2022-10-05T18:21:14.398Z,98803.19
2022-10-05T18:24:03.035Z,98808.09
2022-10-05T18:27:02.420Z,98806.09
2022-10-05T18:30:03.328Z,98809.19
2022-10-05T18:32:39.800Z,98805.63
2022-10-05T18:35:15.080Z,98822.34
2022-10-05T18:38:03.259Z,98822.16
2022-10-05T18:40:46.919Z,98825.50
2022-10-05T18:43:40.869Z,98823.22
2022-10-05T18:46:21.851Z,98821.84
2022-10-05T18:49:16.289Z,98824.44
2022-10-05T18:51:55.194Z,98823.88
2022-10-05T18:54:25.935Z,98830.00
2022-10-05T18:56:53.078Z,98833.09
2022-10-05T18:59:34.828Z,98831.84
2022-10-05T19:02:14.931Z,98838.09
2022-10-05T19:04:52.527Z,98843.03
2022-10-05T19:07:45.498Z,98841.63
2022-10-05T19:10:18.992Z,98850.94
2022-10-05T19:13:00.797Z,98863.06
2022-10-05T19:15:53.928Z,98871.22
2022-10-05T19:18:43.710Z,98867.50
2022-10-05T19:21:37.854Z,98874.94
2022-10-05T19:24:40.545Z,98885.31
2022-10-05T19:27:32.588Z,98886.72
2022-10-05T19:30:23.933Z,98884.63
2022-10-05T19:33:18.213Z,98887.00
2022-10-05T19:35:58.417Z,98890.63
2022-10-05T19:38:55.482Z,98888.00
2022-10-05T19:41:47.321Z,98898.44
2022-10-05T19:44:25.637Z,98899.88
2022-10-05T19:47:24.019Z,98897.88
2022-10-05T19:49:55.279Z,98912.81
2022-10-05T19:52:31.053Z,98918.78
2022-10-05T19:55:24.919Z,98931.84
2022-10-05T19:58:01.212Z,98945.00
2022-10-05T20:00:32.379Z,98948.69
2022-10-05T20:03:11.936Z,98957.44
2022-10-05T20:05:39.944Z,98970.81
2022-10-05T20:08:07.867Z,98967.88
2022-10-05T20:10:34.835Z,98974.53
2022-10-05T20:13:04.453Z,98978.94
2022-10-05T20:15:52.347Z,98985.72
2022-10-05T20:18:57.762Z,98996.47
2022-10-05T20:21:45.755Z,98996.91
2022-10-05T20:24:15.650Z,99002.56
2022-10-05T20:27:06.489Z,99003.94
2022-10-05T20:29:35.415Z,99001.53
2022-10-05T20:32:07.899Z,99004.31
2022-10-05T20:34:42.626Z,99003.53
2022-10-05T20:37:11.508Z,99009.28
2022-10-05T20:39:39.453Z,99012.47
2022-10-05T20:42:07.357Z,99008.16
2022-10-05T20:44:36.517Z,99022.66
2022-10-05T20:47:04.320Z,99026.09
2022-10-05T20:49:31.839Z,99028.19
2022-10-05T20:51:58.849Z,99032.28
2022-10-05T20:54:26.677Z,99031.47
2022-10-05T20:56:55.580Z,99030.84
2022-10-05T20:59:24.174Z,99028.88
2022-10-05T21:01:51.554Z,99021.69
2022-10-05T21:04:20.647Z,99030.28
2022-10-05T21:06:47.425Z,99031.00
2022-10-05T21:09:15.492Z,99027.66
2022-10-05T21:11:42.699Z,99020.53
2022-10-05T21:14:11.365Z,99030.56
2022-10-05T21:16:40.766Z,99031.75
2022-10-05T21:19:12.441Z,99044.78
2022-10-05T21:21:40.535Z,99047.53
2022-10-05T21:24:08.001Z,99052.19
2022-10-05T21:26:34.712Z,99051.59
2022-10-05T21:29:01.963Z,99056.91
2022-10-05T21:31:29.495Z,99051.44
2022-10-05T21:33:56.586Z,99049.28
2022-10-05T21:36:24.737Z,99059.72
2022-10-05T21:38:53.452Z,99053.09
2022-10-05T21:41:21.737Z,99063.00
2022-10-05T21:43:48.875Z,99059.22
2022-10-05T21:46:21.855Z,99061.81
2022-10-05T21:48:49.774Z,99060.00
2022-10-05T21:51:18.799Z,99059.34
2022-10-05T21:54:13.639Z,99055.13
2022-10-05T21:56:44.133Z,99063.41
2022-10-05T21:59:14.724Z,99062.69
2022-10-05T22:01:41.362Z,99071.66
2022-10-05T22:04:08.121Z,99079.56
2022-10-05T22:06:36.008Z,99077.63
2022-10-05T22:09:05.305Z,99082.59
2022-10-05T22:11:32.880Z,99088.84
2022-10-05T22:14:02.651Z,99086.00
2022-10-05T22:16:32.747Z,99088.63
2022-10-05T22:19:03.701Z,99088.47
2022-10-05T22:21:32.801Z,99093.88
2022-10-05T22:24:02.309Z,99092.06
2022-10-05T22:26:29.282Z,99101.88
2022-10-05T22:28:56.930Z,99108.38
2022-10-05T22:31:23.763Z,99100.69
2022-10-05T22:33:50.521Z,99110.53
2022-10-05T22:36:17.476Z,99106.03
2022-10-05T22:38:46.397Z,99107.75
2022-10-05T22:41:14.659Z,99108.56
2022-10-05T22:43:41.339Z,99110.91
2022-10-05T22:46:12.295Z,99112.16
2022-10-05T22:48:39.956Z,99113.09
2022-10-05T22:51:07.576Z,99120.50
2022-10-05T22:53:34.982Z,99119.97
2022-10-05T22:56:06.423Z,99117.06
2022-10-05T22:58:33.042Z,99120.22
2022-10-05T23:01:02.143Z,99130.81
2022-10-05T23:03:29.066Z,99123.69
2022-10-05T23:06:00.152Z,99132.63
2022-10-05T23:08:27.347Z,99129.16
2022-10-05T23:10:54.249Z,99130.00
2022-10-05T23:13:22.324Z,99127.53
2022-10-05T23:15:49.077Z,99128.78
2022-10-05T23:18:16.626Z,99132.81
2022-10-05T23:20:43.320Z,99128.59
2022-10-05T23:23:10.051Z,99131.16
2022-10-05T23:25:36.806Z,99132.22
2022-10-05T23:28:03.506Z,99133.69
2022-10-05T23:30:30.297Z,99133.69
2022-10-05T23:32:57.005Z,99123.09
2022-10-05T23:35:23.645Z,99124.63
2022-10-05T23:37:50.284Z,99125.97
2022-10-05T23:40:16.971Z,99129.81
2022-10-05T23:42:43.606Z,99128.63
2022-10-05T23:45:11.867Z,99125.34
2022-10-05T23:47:39.926Z,99137.28
2022-10-05T23:50:08.446Z,99143.00
2022-10-05T23:52:35.564Z,99150.81
2022-10-05T23:55:04.321Z,99158.56
2022-10-05T23:57:31.380Z,99154.16
2022-10-05T23:59:58.008Z,99154.53
